Kimballton, Virginia
Current Conditions -  °F | °C
As of 6:55 PM on Monday 20 Oct 2014 (Local Time) from KPSK Reporting Station
Overcast Overcast  
Wind Chill: 58°   Ceiling: 7000
Heat Index: 58°   Visibility: 10mi
Dew Point: 45°   Wind: 10mph
Humidity: 61%   Direction: 250°WSW
Pressure: 30"   Gusts: NA
Location:  37.3528°N, 80.6692°W
Report Text: KPSK 202255Z AUTO 25009KT 10SM SCT060 OVC070 15/07 A3000 RMK AO2 T01450071
Loading
Personal Weather Stations






























Interactive Weather Map
Tropical Storm Tracking
New forecast layout! Learn more

10-Day Weather Forecast

Advertisements
Track Severe Weather on mobile